createdAt,value
2022-10-22T00:01:00.917Z,8.50
2022-10-22T00:03:28.932Z,8.50
2022-10-22T00:05:57.047Z,8.50
2022-10-22T00:08:25.069Z,8.50
2022-10-22T00:10:53.378Z,8.50
2022-10-22T00:13:22.759Z,8.60
2022-10-22T00:15:50.721Z,8.60
2022-10-22T00:18:18.643Z,8.70
2022-10-22T00:20:46.580Z,8.60
2022-10-22T00:23:14.859Z,8.60
2022-10-22T00:25:42.993Z,8.60
2022-10-22T00:28:11.533Z,8.70
2022-10-22T00:30:40.793Z,8.70
2022-10-22T00:33:08.710Z,8.70
2022-10-22T00:35:36.760Z,8.70
2022-10-22T00:38:04.934Z,8.70
2022-10-22T00:40:32.926Z,8.70
2022-10-22T00:43:00.885Z,8.80
2022-10-22T00:45:29.808Z,8.80
2022-10-22T00:48:02.723Z,8.80
2022-10-22T00:50:36.567Z,8.80
2022-10-22T00:53:06.056Z,8.80
2022-10-22T00:55:34.464Z,8.90
2022-10-22T00:58:03.394Z,8.90
2022-10-22T01:00:31.832Z,8.90
2022-10-22T01:03:01.902Z,8.90
2022-10-22T01:05:31.923Z,8.90
2022-10-22T01:08:00.288Z,8.90
2022-10-22T01:10:49.861Z,9.00
2022-10-22T01:13:33.946Z,9.00
2022-10-22T01:16:09.890Z,9.00
2022-10-22T01:18:48.900Z,9.00
2022-10-22T01:21:24.641Z,9.00
2022-10-22T01:24:26.521Z,9.00
2022-10-22T01:27:16.380Z,9.00
2022-10-22T01:29:49.481Z,9.10
2022-10-22T01:32:20.305Z,9.20
2022-10-22T01:34:51.782Z,9.10
2022-10-22T01:37:22.939Z,9.10
2022-10-22T01:39:51.692Z,9.10
2022-10-22T01:42:19.937Z,9.10
2022-10-22T01:44:50.201Z,9.20
2022-10-22T01:47:27.705Z,9.20
2022-10-22T01:50:15.458Z,9.10
2022-10-22T01:52:58.932Z,9.20
2022-10-22T01:55:33.282Z,9.20
2022-10-22T01:58:12.090Z,9.20
2022-10-22T02:00:49.120Z,9.20
2022-10-22T02:03:23.817Z,9.20
2022-10-22T02:05:55.717Z,9.20
2022-10-22T02:08:28.215Z,9.30
2022-10-22T02:10:56.875Z,9.20
2022-10-22T02:13:28.450Z,9.20
2022-10-22T02:15:59.927Z,9.20
2022-10-22T02:18:31.043Z,9.20
2022-10-22T02:21:00.209Z,9.20
2022-10-22T02:23:28.956Z,9.20
2022-10-22T02:26:02.609Z,9.20
2022-10-22T02:28:35.936Z,9.20
2022-10-22T02:31:11.205Z,9.20
2022-10-22T02:33:45.514Z,9.20
2022-10-22T02:36:14.588Z,9.20
2022-10-22T02:38:43.216Z,9.20
2022-10-22T02:41:11.484Z,9.20
2022-10-22T02:43:43.738Z,9.20
2022-10-22T02:46:14.445Z,9.20
2022-10-22T02:48:42.546Z,9.30
2022-10-22T02:51:11.071Z,9.30
2022-10-22T02:53:39.499Z,9.20
2022-10-22T02:56:07.989Z,9.10
2022-10-22T02:58:36.239Z,9.20
2022-10-22T03:01:04.414Z,9.20
2022-10-22T03:03:34.135Z,9.20
2022-10-22T03:06:02.445Z,9.30
2022-10-22T03:08:30.971Z,9.20
2022-10-22T03:10:59.264Z,9.30
2022-10-22T03:13:27.244Z,9.20
2022-10-22T03:15:55.427Z,9.20
2022-10-22T03:18:23.600Z,9.20
2022-10-22T03:21:02.754Z,9.20
2022-10-22T03:23:31.598Z,9.20
2022-10-22T03:26:00.673Z,9.20
2022-10-22T03:28:28.791Z,9.20
2022-10-22T03:30:56.729Z,9.20
2022-10-22T03:33:24.880Z,9.20
2022-10-22T03:35:54.575Z,9.30
2022-10-22T03:38:22.560Z,9.30
2022-10-22T03:40:50.730Z,9.30
2022-10-22T03:43:18.892Z,9.30
2022-10-22T03:45:46.943Z,9.30
2022-10-22T03:48:15.383Z,9.30
2022-10-22T03:50:43.376Z,9.30
2022-10-22T03:53:13.140Z,9.30
2022-10-22T03:55:42.844Z,9.30
2022-10-22T03:58:10.797Z,9.30
2022-10-22T04:00:39.045Z,9.40
2022-10-22T04:03:07.115Z,9.20
2022-10-22T04:05:35.283Z,9.30
2022-10-22T04:08:03.379Z,9.30
2022-10-22T04:10:32.820Z,9.40
2022-10-22T04:13:00.796Z,9.40
2022-10-22T04:15:29.111Z,9.40
2022-10-22T04:17:57.223Z,9.40
2022-10-22T04:20:25.154Z,9.50
2022-10-22T04:22:53.149Z,9.40
2022-10-22T04:25:21.074Z,9.40
2022-10-22T04:27:50.316Z,9.40
2022-10-22T04:30:18.414Z,9.40
2022-10-22T04:32:46.390Z,9.40
2022-10-22T04:35:14.389Z,9.40
2022-10-22T04:37:42.705Z,9.40
2022-10-22T04:40:12.480Z,9.40
2022-10-22T04:42:40.422Z,9.50
2022-10-22T04:45:11.085Z,9.40
2022-10-22T04:47:39.277Z,9.50
2022-10-22T04:50:08.444Z,9.50
2022-10-22T04:52:36.387Z,9.50
2022-10-22T04:55:04.435Z,9.50
2022-10-22T04:57:32.787Z,9.50
2022-10-22T05:00:00.730Z,9.50
2022-10-22T05:02:30.035Z,9.50
2022-10-22T05:04:58.104Z,9.50
2022-10-22T05:07:26.165Z,9.50
2022-10-22T05:09:54.740Z,9.50
2022-10-22T05:12:22.698Z,9.50
2022-10-22T05:14:50.633Z,9.50
2022-10-22T05:17:18.604Z,9.50
2022-10-22T05:19:47.934Z,9.50
2022-10-22T05:22:15.852Z,9.60
2022-10-22T05:24:43.834Z,9.50
2022-10-22T05:27:11.836Z,9.50
2022-10-22T05:29:39.789Z,9.60
2022-10-22T05:32:07.707Z,9.50
2022-10-22T05:34:36.181Z,9.60
2022-10-22T05:37:05.480Z,9.60
2022-10-22T05:39:36.671Z,9.60
2022-10-22T05:42:04.968Z,9.60
2022-10-22T05:44:33.022Z,9.60
2022-10-22T05:47:00.972Z,9.60
2022-10-22T05:49:28.875Z,9.60
2022-10-22T05:51:56.804Z,9.60
2022-10-22T05:54:26.088Z,9.60
2022-10-22T05:56:55.601Z,9.70
2022-10-22T05:59:23.630Z,9.70
2022-10-22T06:01:51.771Z,9.70
2022-10-22T06:04:19.910Z,9.70
2022-10-22T06:06:50.236Z,9.80
2022-10-22T06:09:21.342Z,9.80
2022-10-22T06:11:51.501Z,9.90
2022-10-22T06:14:20.434Z,10.00
2022-10-22T06:16:49.004Z,10.10
2022-10-22T06:19:19.812Z,10.00
2022-10-22T06:21:48.539Z,10.10
2022-10-22T06:24:16.868Z,10.10
2022-10-22T06:26:44.933Z,10.10
2022-10-22T06:29:14.266Z,10.10
2022-10-22T06:31:42.264Z,10.10
2022-10-22T06:34:13.292Z,10.10
2022-10-22T06:36:42.710Z,10.10
2022-10-22T06:39:13.065Z,10.10
2022-10-22T06:41:41.113Z,10.10
2022-10-22T06:44:13.722Z,10.10
2022-10-22T06:46:43.608Z,10.10
2022-10-22T06:49:14.907Z,10.10
2022-10-22T06:51:43.193Z,10.10
2022-10-22T06:54:11.650Z,10.20
2022-10-22T06:56:39.619Z,10.20
2022-10-22T06:59:07.558Z,10.30
2022-10-22T07:01:36.770Z,10.30
2022-10-22T07:04:06.853Z,10.30
2022-10-22T07:06:34.913Z,10.30
2022-10-22T07:09:03.098Z,10.30
2022-10-22T07:11:38.730Z,10.30
2022-10-22T07:14:06.787Z,10.30
2022-10-22T07:16:34.757Z,10.20
2022-10-22T07:19:03.341Z,10.30
2022-10-22T07:21:33.376Z,10.30
2022-10-22T07:24:01.471Z,10.30
2022-10-22T07:26:32.712Z,10.30
2022-10-22T07:29:01.338Z,10.30
2022-10-22T07:31:29.562Z,10.30
2022-10-22T07:33:57.643Z,10.40
2022-10-22T07:36:25.626Z,10.30
2022-10-22T07:38:57.749Z,10.30
2022-10-22T07:41:26.510Z,10.40
2022-10-22T07:43:54.408Z,10.40
2022-10-22T07:46:22.430Z,10.40
2022-10-22T07:48:50.588Z,10.40
2022-10-22T07:51:19.233Z,10.50
2022-10-22T07:53:47.360Z,10.50
2022-10-22T07:56:17.683Z,10.50
2022-10-22T07:58:45.681Z,10.60
2022-10-22T08:01:13.716Z,10.50
2022-10-22T08:03:41.726Z,10.60
2022-10-22T08:06:11.504Z,10.60
2022-10-22T08:08:39.522Z,10.60
2022-10-22T08:11:07.856Z,10.60
2022-10-22T08:13:40.433Z,10.60
2022-10-22T08:16:10.751Z,10.50
2022-10-22T08:18:39.463Z,10.60
2022-10-22T08:21:07.915Z,10.60
2022-10-22T08:23:35.833Z,10.70
2022-10-22T08:26:04.202Z,10.70
2022-10-22T08:28:35.933Z,10.70
2022-10-22T08:31:05.421Z,10.70
2022-10-22T08:33:33.396Z,10.70
2022-10-22T08:36:01.441Z,10.70
2022-10-22T08:38:31.274Z,10.70
2022-10-22T08:41:08.744Z,10.60
2022-10-22T08:44:20.578Z,10.70
2022-10-22T08:47:05.078Z,10.70
2022-10-22T08:49:39.713Z,10.70
2022-10-22T08:52:13.789Z,10.80
2022-10-22T08:54:50.225Z,10.80
2022-10-22T08:57:28.146Z,10.80
2022-10-22T09:00:02.995Z,10.80
2022-10-22T09:02:42.180Z,10.90
2022-10-22T09:05:24.914Z,11.00
2022-10-22T09:07:53.143Z,11.00
2022-10-22T09:10:25.594Z,11.00
2022-10-22T09:12:53.581Z,11.10
2022-10-22T09:15:21.789Z,11.10
2022-10-22T09:18:16.966Z,11.10
2022-10-22T09:20:51.319Z,11.10
2022-10-22T09:23:28.795Z,11.10
2022-10-22T09:25:59.061Z,11.00
2022-10-22T09:28:27.213Z,11.00
2022-10-22T09:30:55.227Z,11.00
2022-10-22T09:33:26.816Z,11.00
2022-10-22T09:35:56.705Z,11.00
2022-10-22T09:38:27.716Z,11.00
2022-10-22T09:40:57.710Z,11.00
2022-10-22T09:43:25.648Z,11.10
2022-10-22T09:45:58.505Z,11.10
2022-10-22T09:48:34.466Z,11.10
2022-10-22T09:51:08.513Z,11.20
2022-10-22T09:53:43.351Z,11.20
2022-10-22T09:56:22.096Z,11.30
2022-10-22T09:58:52.176Z,11.20
2022-10-22T10:01:23.556Z,11.30
2022-10-22T10:03:53.324Z,11.40
2022-10-22T10:06:23.126Z,11.40
2022-10-22T10:08:51.804Z,11.40
2022-10-22T10:11:29.430Z,11.50
2022-10-22T10:14:09.406Z,11.50
2022-10-22T10:16:49.822Z,11.50
2022-10-22T10:19:39.080Z,11.60
2022-10-22T10:22:15.256Z,11.50
2022-10-22T10:25:01.830Z,11.50
2022-10-22T10:27:38.107Z,11.50
2022-10-22T10:30:12.701Z,11.50
2022-10-22T10:33:12.152Z,11.50
2022-10-22T10:35:50.686Z,11.50
2022-10-22T10:38:33.109Z,11.50
2022-10-22T10:41:12.075Z,11.60
2022-10-22T10:43:48.503Z,11.60
2022-10-22T10:46:23.219Z,11.60
2022-10-22T10:48:57.027Z,11.60
2022-10-22T10:51:38.533Z,11.60
2022-10-22T10:54:20.087Z,11.60
2022-10-22T10:56:52.253Z,11.60
2022-10-22T10:59:32.445Z,11.60
2022-10-22T11:02:43.629Z,11.60
2022-10-22T11:05:33.448Z,11.70
2022-10-22T11:08:07.574Z,11.70
2022-10-22T11:10:40.169Z,11.70
2022-10-22T11:13:18.360Z,11.60
2022-10-22T11:15:51.508Z,11.70
2022-10-22T11:18:25.207Z,11.80
2022-10-22T11:21:11.146Z,11.70
2022-10-22T11:23:45.270Z,11.80
2022-10-22T11:26:20.436Z,11.80
2022-10-22T11:28:54.447Z,11.70
2022-10-22T11:31:25.354Z,11.80
2022-10-22T11:34:09.727Z,11.80
2022-10-22T11:36:39.981Z,11.80
2022-10-22T11:39:28.233Z,11.80
2022-10-22T11:41:58.897Z,11.70
2022-10-22T11:44:28.407Z,11.80
2022-10-22T11:46:58.083Z,11.90
2022-10-22T11:49:29.172Z,11.90
2022-10-22T11:52:25.710Z,11.80
2022-10-22T11:55:02.477Z,12.20
2022-10-22T11:57:38.511Z,12.00
2022-10-22T12:00:12.514Z,12.10
2022-10-22T12:02:43.992Z,12.10
2022-10-22T12:05:35.263Z,12.10
2022-10-22T12:08:25.226Z,12.20
2022-10-22T12:11:15.556Z,12.20
2022-10-22T12:14:17.475Z,12.10
2022-10-22T12:16:56.497Z,12.20
2022-10-22T12:19:31.986Z,12.20
2022-10-22T12:22:03.625Z,12.20
2022-10-22T12:24:35.770Z,12.30
2022-10-22T12:27:08.225Z,12.30
2022-10-22T12:29:36.693Z,12.40
2022-10-22T12:32:05.824Z,12.40
2022-10-22T12:34:33.931Z,12.50
2022-10-22T12:37:06.688Z,12.50
2022-10-22T12:39:35.568Z,12.60
2022-10-22T12:42:06.712Z,12.60
2022-10-22T12:44:35.086Z,12.70
2022-10-22T12:47:03.318Z,12.80
2022-10-22T12:49:37.574Z,12.70
2022-10-22T12:52:10.874Z,12.80
2022-10-22T12:54:42.365Z,12.80
2022-10-22T12:57:15.266Z,12.80
2022-10-22T12:59:48.889Z,12.80
2022-10-22T13:02:22.586Z,12.80
2022-10-22T13:05:17.027Z,12.80
2022-10-22T13:07:48.090Z,12.80
2022-10-22T13:10:24.485Z,12.90
2022-10-22T13:12:59.015Z,12.70
2022-10-22T13:15:40.440Z,12.80
2022-10-22T13:18:17.666Z,12.70
2022-10-22T13:20:57.257Z,12.70
2022-10-22T13:23:43.302Z,12.70
2022-10-22T13:26:16.777Z,12.80
2022-10-22T13:28:51.713Z,12.90
2022-10-22T13:31:23.752Z,12.70
2022-10-22T13:33:56.218Z,12.70
2022-10-22T13:36:25.237Z,12.70
2022-10-22T13:38:53.306Z,12.60
2022-10-22T13:41:23.994Z,12.60
2022-10-22T13:43:54.007Z,12.60
2022-10-22T13:46:23.079Z,12.50
2022-10-22T13:48:52.659Z,12.60
2022-10-22T13:51:23.738Z,12.50
2022-10-22T13:53:53.893Z,12.50
2022-10-22T13:56:23.961Z,12.50
2022-10-22T13:58:53.610Z,12.50
2022-10-22T14:01:24.148Z,12.40
2022-10-22T14:03:54.525Z,12.40
2022-10-22T14:06:23.690Z,12.40
2022-10-22T14:08:58.405Z,12.50
2022-10-22T14:11:27.316Z,12.30
2022-10-22T14:13:56.806Z,12.30
2022-10-22T14:16:27.469Z,12.30
2022-10-22T14:18:56.654Z,12.30
2022-10-22T14:21:24.855Z,12.30
2022-10-22T14:23:54.144Z,12.30
2022-10-22T14:26:24.964Z,12.30
2022-10-22T14:29:09.859Z,12.30
2022-10-22T14:34:11.603Z,12.30
2022-10-22T14:36:39.694Z,12.30
2022-10-22T14:39:07.766Z,12.30
2022-10-22T14:41:36.090Z,12.40
2022-10-22T14:44:04.172Z,12.30
2022-10-22T14:46:32.215Z,12.30
2022-10-22T14:49:02.885Z,12.30
2022-10-22T14:51:31.034Z,12.30
2022-10-22T14:53:59.051Z,12.20
2022-10-22T14:56:27.209Z,12.30
2022-10-22T14:59:06.294Z,12.30
2022-10-22T15:01:38.922Z,12.30
2022-10-22T15:04:08.259Z,12.20
2022-10-22T15:06:36.670Z,12.30
2022-10-22T15:09:04.912Z,12.20
2022-10-22T15:11:32.996Z,12.20
2022-10-22T15:14:01.857Z,12.20
2022-10-22T15:16:30.057Z,12.20
2022-10-22T15:18:59.726Z,12.20
2022-10-22T15:21:29.246Z,12.20
2022-10-22T15:23:57.410Z,12.20
2022-10-22T15:26:25.517Z,12.20
2022-10-22T15:28:53.511Z,12.20
2022-10-22T15:31:50.020Z,12.10
2022-10-22T15:34:25.362Z,12.10
2022-10-22T15:36:56.573Z,12.20
2022-10-22T15:39:25.316Z,12.10
2022-10-22T15:41:54.412Z,12.10
2022-10-22T15:44:25.200Z,12.10
2022-10-22T15:46:55.159Z,12.10
2022-10-22T15:49:24.116Z,12.10
2022-10-22T15:51:52.510Z,12.10
2022-10-22T15:54:24.299Z,12.10
2022-10-22T15:56:52.447Z,12.10
2022-10-22T15:59:20.586Z,12.10
2022-10-22T16:01:49.059Z,12.10
2022-10-22T16:04:18.782Z,12.10
2022-10-22T16:06:49.437Z,12.10
2022-10-22T16:09:20.020Z,12.00
2022-10-22T16:11:48.372Z,12.00
2022-10-22T16:14:20.029Z,12.00
2022-10-22T16:16:50.071Z,12.20
2022-10-22T16:19:21.665Z,12.00
2022-10-22T16:21:51.923Z,12.00
2022-10-22T16:24:21.108Z,12.00
2022-10-22T16:26:49.950Z,12.00
2022-10-22T16:29:18.017Z,12.00
2022-10-22T16:31:46.159Z,12.00
2022-10-22T16:34:14.671Z,12.00
2022-10-22T16:36:44.670Z,12.00
2022-10-22T16:39:12.771Z,12.00
2022-10-22T16:41:40.873Z,12.00
2022-10-22T16:44:10.983Z,12.00
2022-10-22T16:46:39.113Z,12.00
2022-10-22T16:49:08.207Z,12.00
2022-10-22T16:51:36.699Z,12.00
2022-10-22T16:54:09.696Z,12.00
2022-10-22T16:56:40.329Z,12.00
2022-10-22T16:59:08.805Z,12.00
2022-10-22T17:01:40.985Z,12.00
2022-10-22T17:04:09.653Z,12.00
2022-10-22T17:06:37.790Z,12.00
2022-10-22T17:09:07.615Z,12.00
2022-10-22T17:11:38.153Z,12.00
2022-10-22T17:14:08.355Z,12.00
2022-10-22T17:16:36.479Z,12.10
2022-10-22T17:19:05.420Z,12.20
2022-10-22T17:21:34.054Z,12.10
2022-10-22T17:24:02.284Z,12.10
2022-10-22T17:26:33.271Z,12.10
2022-10-22T17:29:01.733Z,12.10
2022-10-22T17:31:32.606Z,12.20
2022-10-22T17:34:00.880Z,12.20
2022-10-22T17:36:33.292Z,12.20
2022-10-22T17:39:07.179Z,12.10
2022-10-22T17:41:39.206Z,12.10
2022-10-22T17:44:09.941Z,12.10
2022-10-22T17:46:38.605Z,12.10
2022-10-22T17:49:09.550Z,12.10
2022-10-22T17:51:37.783Z,12.10
2022-10-22T17:54:08.806Z,12.10
2022-10-22T17:56:40.243Z,12.20
2022-10-22T17:59:08.519Z,12.10
2022-10-22T18:01:40.258Z,12.10
2022-10-22T18:04:09.452Z,12.10
2022-10-22T18:06:37.639Z,12.10
2022-10-22T18:09:06.653Z,12.10
2022-10-22T18:11:36.598Z,12.10
2022-10-22T18:14:06.597Z,12.10
2022-10-22T18:16:34.939Z,12.10
2022-10-22T18:19:03.565Z,12.20
2022-10-22T18:21:31.907Z,12.10
2022-10-22T18:24:00.214Z,12.20
2022-10-22T18:26:28.377Z,12.10
2022-10-22T18:28:57.364Z,12.10
2022-10-22T18:31:28.224Z,12.20
2022-10-22T18:33:57.157Z,12.10
2022-10-22T18:36:27.300Z,12.20
2022-10-22T18:38:56.874Z,12.20
2022-10-22T18:41:25.573Z,12.10
2022-10-22T18:43:53.957Z,12.30
2022-10-22T18:46:23.943Z,12.20
2022-10-22T18:48:55.255Z,12.20
2022-10-22T18:51:24.019Z,12.10
2022-10-22T18:54:05.482Z,12.20
2022-10-22T18:56:40.200Z,12.30
2022-10-22T18:59:08.214Z,12.20
2022-10-22T19:01:36.223Z,12.20
2022-10-22T19:04:05.858Z,12.20
2022-10-22T19:06:36.735Z,12.20
2022-10-22T19:09:05.313Z,12.30
2022-10-22T19:11:33.762Z,12.20
2022-10-22T19:14:01.777Z,12.20
2022-10-22T19:16:29.835Z,12.20
2022-10-22T19:19:02.302Z,12.20
2022-10-22T19:21:31.906Z,12.30
2022-10-22T19:24:01.509Z,12.20
2022-10-22T19:26:31.198Z,12.30
2022-10-22T19:29:00.210Z,12.30
2022-10-22T19:31:29.892Z,12.20
2022-10-22T19:34:00.325Z,12.30
2022-10-22T19:36:28.832Z,12.30
2022-10-22T19:39:03.539Z,12.30
2022-10-22T19:41:33.854Z,12.20
2022-10-22T19:44:02.149Z,12.30
2022-10-22T19:46:32.626Z,12.30
2022-10-22T19:49:02.647Z,12.30
2022-10-22T19:51:33.315Z,12.30
2022-10-22T19:54:04.571Z,12.30
2022-10-22T19:56:35.442Z,12.30
2022-10-22T19:59:04.673Z,12.30
2022-10-22T20:01:32.947Z,12.30
2022-10-22T20:04:02.490Z,12.30
2022-10-22T20:06:31.225Z,12.30
2022-10-22T20:08:59.711Z,12.30
2022-10-22T20:11:31.035Z,12.30
2022-10-22T20:13:59.775Z,12.30
2022-10-22T20:16:30.085Z,12.50
2022-10-22T20:19:02.239Z,12.40
2022-10-22T20:21:30.842Z,12.40
2022-10-22T20:23:59.045Z,12.40
2022-10-22T20:26:29.538Z,12.30
2022-10-22T20:28:58.352Z,12.40
2022-10-22T20:31:28.552Z,12.40
2022-10-22T20:33:58.643Z,12.40
2022-10-22T20:36:28.651Z,12.40
2022-10-22T20:39:01.759Z,12.40
2022-10-22T20:41:31.598Z,12.40
2022-10-22T20:43:59.817Z,12.40
2022-10-22T20:46:30.126Z,12.40
2022-10-22T20:49:01.087Z,12.40
2022-10-22T20:51:29.162Z,12.40
2022-10-22T20:53:57.274Z,12.40
2022-10-22T20:56:25.496Z,12.50
2022-10-22T20:59:04.251Z,12.40
2022-10-22T21:01:34.404Z,12.50
2022-10-22T21:04:02.584Z,12.40
2022-10-22T21:06:30.739Z,12.50
2022-10-22T21:08:59.013Z,12.50
2022-10-22T21:11:27.167Z,12.50
2022-10-22T21:13:56.521Z,12.50
2022-10-22T21:16:24.648Z,12.50
2022-10-22T21:18:52.683Z,12.50
2022-10-22T21:21:20.684Z,12.50
2022-10-22T21:23:50.158Z,12.50
2022-10-22T21:26:18.352Z,12.70
2022-10-22T21:28:46.690Z,12.50
2022-10-22T21:31:21.867Z,12.40
2022-10-22T21:33:50.883Z,12.60
2022-10-22T21:36:22.763Z,12.60
2022-10-22T21:38:51.589Z,12.50
2022-10-22T21:41:21.034Z,12.50
2022-10-22T21:43:49.355Z,12.60
2022-10-22T21:46:20.886Z,12.60
2022-10-22T21:48:53.116Z,12.60
2022-10-22T21:51:21.714Z,12.60
2022-10-22T21:53:49.709Z,12.60
2022-10-22T21:56:20.155Z,12.60
2022-10-22T21:58:48.526Z,12.60
2022-10-22T22:01:18.491Z,12.60
2022-10-22T22:03:50.052Z,12.60
2022-10-22T22:06:21.424Z,12.60
2022-10-22T22:08:50.923Z,12.60
2022-10-22T22:11:21.190Z,12.60
2022-10-22T22:13:49.647Z,12.60
2022-10-22T22:16:25.419Z,12.60
2022-10-22T22:18:56.696Z,12.60
2022-10-22T22:21:24.763Z,12.60
2022-10-22T22:23:52.972Z,12.60
2022-10-22T22:26:25.480Z,12.60
2022-10-22T22:28:57.060Z,12.60
2022-10-22T22:31:28.635Z,12.60
2022-10-22T22:33:59.742Z,12.60
2022-10-22T22:36:27.724Z,12.70
2022-10-22T22:38:56.905Z,12.60
2022-10-22T22:41:24.934Z,12.60
2022-10-22T22:43:52.916Z,12.60
2022-10-22T22:46:20.844Z,12.60
2022-10-22T22:48:50.937Z,12.60
2022-10-22T22:51:19.239Z,12.60
2022-10-22T22:53:47.608Z,12.60
2022-10-22T22:56:18.350Z,12.60
2022-10-22T22:58:46.823Z,12.60
2022-10-22T23:01:17.510Z,12.60
2022-10-22T23:03:47.265Z,12.60
2022-10-22T23:06:16.912Z,12.60
2022-10-22T23:08:45.047Z,12.60
2022-10-22T23:11:15.003Z,12.60
2022-10-22T23:13:44.096Z,12.60
2022-10-22T23:16:16.655Z,12.60
2022-10-22T23:18:45.364Z,12.60
2022-10-22T23:21:14.874Z,12.50
2022-10-22T23:23:46.180Z,12.60
2022-10-22T23:26:15.411Z,12.50
2022-10-22T23:28:43.358Z,12.50
2022-10-22T23:31:13.510Z,12.50
2022-10-22T23:33:41.710Z,12.50
2022-10-22T23:36:10.705Z,12.50
2022-10-22T23:38:40.109Z,12.40
2022-10-22T23:41:10.269Z,12.40
2022-10-22T23:43:39.154Z,12.40
2022-10-22T23:46:09.202Z,12.40
2022-10-22T23:48:39.038Z,12.40
2022-10-22T23:51:08.901Z,12.40
2022-10-22T23:53:36.855Z,12.40
2022-10-22T23:56:06.293Z,12.40
2022-10-22T23:58:36.692Z,12.40
